Terminal Aerodrome Forecast
Issued by NWS Tiyan, Guam

Home | Current Version | Previous Version | Text Only | Print | Product List | Glossary On
Versions: 1 2 3 4 5 6 7 8 9 10 11 12 13 14 15 16 17 18 19 20 21 22 23
000
FTPQ31 PGUM 012342
TAFGUM
TAF
PGUM 012342Z 0200/0306 03011KT 5SM SHRA SCT015 BKN030 OVC100
     FM020100 03011KT P6SM VCSH SCT020 SCT050
     FM020900 02012KT P6SM VCSH FEW018 SCT040 BKN140=

USA.gov is the U.S. government's official web portal to all federal, state and local government web resources and services.